Time;durP1;ratioP1;P1;durP2;ratioP2;P2;SDS_P1;SDS_P2;PMS_P1;PMS_P2;Temp;Humidity;BMP_temperature;BMP_pressure;BME280_temperature;BME280_humidity;BME280_pressure;Samples;Min_cycle;Max_cycle;Signal;HPM_P1;HPM_P2
2022/12/20 00:01:20;;;;;;;25.42;8.68;;;17.90;36.10;;;;;;5008336;28;20167;-65
2022/12/20 00:03:50;;;;;;;18.30;7.05;;;17.80;36.30;;;;;;5000465;28;20124;-67
2022/12/20 00:06:17;;;;;;;13.60;7.18;;;17.70;36.60;;;;;;5009238;28;20083;-66
2022/12/20 00:08:44;;;;;;;22.05;7.75;;;17.70;36.70;;;;;;5031805;28;20142;-65
2022/12/20 00:11:11;;;;;;;20.17;9.02;;;17.60;37.50;;;;;;5025237;28;20520;-67
2022/12/20 00:13:37;;;;;;;20.42;8.00;;;17.50;38.40;;;;;;5029720;28;20184;-67
2022/12/20 00:16:09;;;;;;;14.88;8.10;;;17.40;38.50;;;;;;5018446;28;20067;-68
2022/12/20 00:18:36;;;;;;;19.48;7.95;;;17.30;38.60;;;;;;5016955;28;20076;-66
2022/12/20 00:21:05;;;;;;;16.67;7.03;;;17.20;38.40;;;;;;5013552;28;20111;-68
2022/12/20 00:23:32;;;;;;;10.27;6.35;;;17.10;38.50;;;;;;5019168;28;20073;-67
2022/12/20 00:26:10;;;;;;;25.42;8.15;;;17.00;38.70;;;;;;4998850;28;20087;-66
2022/12/20 00:28:37;;;;;;;29.20;8.15;;;16.90;38.90;;;;;;5009362;28;20175;-66
2022/12/20 00:31:04;;;;;;;28.95;8.07;;;16.80;39.50;;;;;;5011493;28;20091;-66
2022/12/20 00:33:33;;;;;;;29.42;8.13;;;16.70;40.60;;;;;;4997709;28;20095;-65
2022/12/20 00:35:59;;;;;;;25.60;7.88;;;16.60;40.60;;;;;;5029821;28;20082;-65
2022/12/20 00:38:26;;;;;;;23.27;8.35;;;16.50;40.80;;;;;;5014231;28;20070;-66
2022/12/20 00:41:06;;;;;;;18.02;7.45;;;16.40;41.60;;;;;;5016422;28;20415;-67
2022/12/20 00:43:34;;;;;;;21.42;7.63;;;16.30;41.80;;;;;;5011603;28;20124;-66
2022/12/20 00:46:00;;;;;;;26.10;8.65;;;16.10;42.50;;;;;;5022582;28;20552;-65
2022/12/20 00:48:29;;;;;;;31.80;8.02;;;16.00;43.00;;;;;;5004984;28;20083;-67
2022/12/20 00:51:00;;;;;;;38.55;8.57;;;15.90;43.60;;;;;;5021802;28;20080;-65
2022/12/20 00:53:27;;;;;;;26.52;8.40;;;15.70;43.90;;;;;;5008175;28;20163;-67
2022/12/20 00:55:54;;;;;;;25.55;7.63;;;15.60;44.00;;;;;;5017120;28;20583;-66
2022/12/20 00:58:21;;;;;;;24.10;8.48;;;15.60;43.70;;;;;;5010772;28;20626;-67
2022/12/20 01:00:47;;;;;;;;;;;15.40;44.00;;;;;;5021266;28;20068;-67
2022/12/20 01:03:13;;;;;;;34.17;10.02;;;15.40;44.60;;;;;;5028464;28;19967;-65
2022/12/20 01:05:40;;;;;;;36.83;9.10;;;15.30;45.40;;;;;;4998485;28;20101;-66
2022/12/20 01:08:06;;;;;;;;;;;15.20;45.70;;;;;;5005778;28;20441;-65
2022/12/20 01:10:33;;;;;;;27.45;9.80;;;15.10;46.30;;;;;;5004701;28;20056;-66
2022/12/20 01:12:59;;;;;;;31.25;9.57;;;14.90;46.70;;;;;;5031432;28;20481;-65
2022/12/20 01:15:26;;;;;;;25.35;8.65;;;14.90;46.90;;;;;;5033035;28;20118;-67
2022/12/20 01:17:52;;;;;;;;;;;14.80;47.30;;;;;;5019743;28;20517;-68
2022/12/20 01:20:18;;;;;;;36.92;10.57;;;14.70;47.70;;;;;;5021544;28;20003;-65
2022/12/20 01:22:45;;;;;;;35.83;11.40;;;14.50;48.30;;;;;;5020258;28;20119;-67
2022/12/20 01:25:11;;;;;;;;;;;14.40;48.60;;;;;;5016430;28;20073;-65
2022/12/20 01:27:37;;;;;;;45.97;11.13;;;14.40;49.10;;;;;;4999014;28;20055;-66
2022/12/20 01:30:03;;;;;;;;;;;14.20;49.30;;;;;;5016160;28;20069;-66
2022/12/20 01:32:30;;;;;;;46.70;11.30;;;14.20;49.20;;;;;;5011418;28;20416;-67
2022/12/20 18:56:50;;;;;;;19.00;7.30;;;20.60;36.40;;;;;;5114336;27;20481;-61
2022/12/20 18:59:17;;;;;;;18.45;6.65;;;21.10;35.80;;;;;;5108943;28;20154;-61
2022/12/20 19:01:43;;;;;;;23.55;7.43;;;21.70;34.70;;;;;;5112963;28;20069;-61
2022/12/20 19:04:10;;;;;;;28.52;7.15;;;21.30;35.70;;;;;;5108689;28;20082;-60
2022/12/20 19:06:37;;;;;;;30.58;7.25;;;21.30;35.70;;;;;;5107364;28;20528;-61
2022/12/20 19:09:07;;;;;;;22.40;6.40;;;21.10;35.10;;;;;;5107428;28;20083;-60
2022/12/20 19:11:34;;;;;;;16.88;6.43;;;20.70;35.40;;;;;;5105877;28;20079;-60
2022/12/20 19:14:01;;;;;;;15.10;6.35;;;21.00;34.80;;;;;;5105560;28;20087;-61
2022/12/20 19:16:30;;;;;;;14.38;5.13;;;20.70;34.00;;;;;;5103163;28;20579;-61
2022/12/20 19:18:58;;;;;;;18.42;5.40;;;20.30;34.90;;;;;;5103531;28;20076;-62
2022/12/20 19:21:26;;;;;;;14.02;5.30;;;20.30;33.90;;;;;;5103815;28;20176;-61
2022/12/20 19:23:56;;;;;;;14.50;5.30;;;19.70;34.60;;;;;;5109031;27;20074;-62
2022/12/20 19:26:28;;;;;;;14.95;4.95;;;19.70;34.90;;;;;;5108256;28;20077;-60
2022/12/20 19:28:56;;;;;;;15.18;4.68;;;19.60;35.50;;;;;;5099589;28;20068;-60
2022/12/20 19:31:28;;;;;;;13.93;5.25;;;19.50;34.20;;;;;;5105288;28;20068;-61
2022/12/20 19:33:57;;;;;;;13.18;5.72;;;19.50;34.70;;;;;;5104508;28;20072;-60
2022/12/20 19:36:29;;;;;;;18.67;5.38;;;19.50;35.70;;;;;;5102235;28;20176;-60
2022/12/20 19:38:57;;;;;;;12.45;4.70;;;19.30;36.30;;;;;;5103064;28;20133;-60
2022/12/20 19:41:26;;;;;;;18.02;8.93;;;19.30;36.30;;;;;;5109478;28;20093;-62
2022/12/20 19:43:53;;;;;;;17.13;5.40;;;19.20;36.00;;;;;;5106281;27;20082;-61
2022/12/20 19:46:22;;;;;;;14.10;5.78;;;19.20;35.90;;;;;;5103657;28;20072;-60
2022/12/20 19:55:40;;;;;;;14.10;3.60;;;19.10;34.00;;;;;;5110981;27;20873;-58
2022/12/20 19:58:06;;;;;;;13.57;4.53;;;18.80;34.40;;;;;;5105823;28;20748;-61
2022/12/20 20:00:33;;;;;;;18.08;4.65;;;19.00;34.50;;;;;;5106355;28;20068;-63
2022/12/20 20:02:59;;;;;;;15.15;4.70;;;19.10;35.00;;;;;;5106406;28;20582;-63
2022/12/20 20:05:26;;;;;;;13.50;4.05;;;19.20;35.00;;;;;;5106105;28;20090;-63
2022/12/20 20:07:52;;;;;;;12.90;5.63;;;19.30;34.30;;;;;;5105595;28;20073;-60
2022/12/20 20:10:19;;;;;;;6.10;2.80;;;19.30;32.10;;;;;;5110201;28;20119;-62
2022/12/20 20:12:45;;;;;;;6.85;2.90;;;19.40;31.70;;;;;;5106418;28;20084;-59
2022/12/20 20:15:12;;;;;;;10.07;2.90;;;19.20;30.60;;;;;;5115415;28;20143;-62
2022/12/20 20:17:38;;;;;;;4.45;2.40;;;19.10;32.00;;;;;;5101555;28;20098;-60
2022/12/20 20:20:05;;;;;;;7.88;2.35;;;19.30;31.40;;;;;;5103379;28;20078;-64
2022/12/20 20:22:31;;;;;;;7.68;2.72;;;19.30;32.50;;;;;;5103811;28;20097;-61
2022/12/20 20:24:58;;;;;;;7.63;2.88;;;19.40;32.20;;;;;;5111587;28;20072;-61
2022/12/20 20:27:24;;;;;;;11.77;2.72;;;19.30;33.80;;;;;;5105201;27;20119;-64
2022/12/20 20:29:50;;;;;;;10.90;3.03;;;19.40;33.90;;;;;;5107568;28;20121;-63
2022/12/20 20:32:17;;;;;;;14.43;3.08;;;19.50;33.20;;;;;;5110663;28;20072;-62
2022/12/20 20:34:43;;;;;;;10.75;3.65;;;19.60;33.60;;;;;;5115362;27;20087;-63
2022/12/20 20:37:10;;;;;;;9.57;4.07;;;19.70;34.80;;;;;;5112778;28;20116;-62
2022/12/20 20:39:36;;;;;;;11.80;4.28;;;19.70;35.00;;;;;;5112918;27;20083;-64
2022/12/20 20:42:02;;;;;;;15.45;5.72;;;19.70;35.10;;;;;;5112561;28;20608;-63
2022/12/20 20:44:29;;;;;;;12.15;3.85;;;19.90;35.50;;;;;;5111432;28;20516;-64
2022/12/20 20:46:55;;;;;;;10.68;3.10;;;20.00;35.00;;;;;;5113820;28;20071;-61
2022/12/20 20:49:21;;;;;;;7.68;2.63;;;20.10;33.70;;;;;;5113180;28;20073;-63
2022/12/20 20:51:48;;;;;;;10.20;4.53;;;20.20;32.10;;;;;;5112959;28;20613;-61
2022/12/20 20:54:14;;;;;;;6.85;2.70;;;20.10;31.90;;;;;;5114670;28;20107;-63
2022/12/20 20:56:41;;;;;;;7.78;3.25;;;20.00;32.40;;;;;;5114409;28;20069;-63
2022/12/20 20:59:08;;;;;;;13.07;3.70;;;19.90;33.60;;;;;;5115240;27;20067;-64
2022/12/20 21:01:34;;;;;;;9.95;2.60;;;20.00;34.00;;;;;;5116623;28;20067;-63
2022/12/20 21:04:01;;;;;;;8.95;3.05;;;20.10;33.70;;;;;;5111776;28;20071;-61
2022/12/20 21:06:28;;;;;;;8.02;2.72;;;20.20;33.30;;;;;;5102604;28;20092;-65
2022/12/20 21:08:55;;;;;;;7.88;3.50;;;19.90;32.30;;;;;;5105950;28;20154;-62
2022/12/20 21:11:22;;;;;;;7.78;3.97;;;20.00;33.10;;;;;;5099762;28;20151;-63
2022/12/20 21:13:48;;;;;;;8.10;4.07;;;20.00;33.10;;;;;;5097342;28;20088;-64
2022/12/20 21:16:20;;;;;;;6.47;3.67;;;19.90;33.20;;;;;;5095256;28;20156;-64
2022/12/20 21:18:55;;;;;;;13.23;3.38;;;19.90;33.20;;;;;;5088214;28;20086;-64
2022/12/20 21:21:23;;;;;;;12.85;3.47;;;20.10;33.10;;;;;;5097873;28;20063;-63
2022/12/20 21:23:50;;;;;;;6.35;2.95;;;20.30;32.00;;;;;;5099573;28;20063;-66
2022/12/20 21:26:18;;;;;;;10.95;3.55;;;20.20;31.10;;;;;;5097874;28;20074;-64
2022/12/20 21:28:45;;;;;;;8.15;4.68;;;20.10;31.80;;;;;;5097125;28;20431;-65
2022/12/20 21:31:42;;;;;;;5.20;3.00;;;20.30;31.90;;;;;;5101199;28;20068;-65
2022/12/20 21:34:10;;;;;;;7.68;3.58;;;20.30;30.90;;;;;;5095300;28;20138;-64
2022/12/20 21:36:37;;;;;;;10.75;4.07;;;20.30;31.20;;;;;;5095592;28;20100;-62
2022/12/20 21:39:04;;;;;;;15.32;3.30;;;20.20;31.20;;;;;;5096623;28;20060;-63
2022/12/20 21:41:30;;;;;;;6.93;2.70;;;20.00;30.40;;;;;;5099700;28;20439;-64
2022/12/20 21:43:59;;;;;;;3.85;2.70;;;20.20;30.90;;;;;;5097654;28;20201;-64
2022/12/20 21:46:27;;;;;;;7.00;2.80;;;20.20;31.10;;;;;;5100675;28;20077;-63
2022/12/20 21:48:54;;;;;;;6.85;2.75;;;20.30;30.90;;;;;;5097926;28;20425;-64
2022/12/20 21:51:22;;;;;;;8.38;3.10;;;20.30;31.40;;;;;;5109292;22;20116;-67
2022/12/20 21:53:51;;;;;;;7.50;3.60;;;20.30;31.80;;;;;;5031835;28;20096;-65
2022/12/20 21:56:18;;;;;;;5.32;3.65;;;20.40;32.00;;;;;;5029431;28;20160;-64
2022/12/20 21:58:45;;;;;;;5.35;3.38;;;20.20;32.40;;;;;;5031537;28;20130;-64
2022/12/20 22:01:14;;;;;;;7.47;4.25;;;20.10;33.30;;;;;;5031549;28;20439;-64
2022/12/20 22:03:43;;;;;;;4.90;3.03;;;20.20;33.70;;;;;;5030771;28;20068;-65
2022/12/20 22:06:09;;;;;;;11.60;3.40;;;20.30;32.40;;;;;;5030801;28;20119;-64
2022/12/20 22:08:36;;;;;;;10.32;3.58;;;20.20;33.20;;;;;;5030920;28;20061;-65
2022/12/20 22:11:06;;;;;;;51.38;7.68;;;20.20;34.00;;;;;;5031086;28;20437;-68
2022/12/20 22:13:34;;;;;;;21.50;4.72;;;20.40;33.50;;;;;;5030907;28;20590;-66
2022/12/20 22:16:14;;;;;;;10.77;3.05;;;20.40;33.70;;;;;;5045263;28;20081;-65
2022/12/20 22:18:41;;;;;;;9.90;3.58;;;20.30;33.30;;;;;;5040916;28;20068;-65
2022/12/20 22:21:11;;;;;;;5.72;3.80;;;20.50;33.10;;;;;;5041551;28;20159;-64
2022/12/20 22:23:38;;;;;;;8.18;3.20;;;20.50;33.20;;;;;;5042173;28;20064;-67
2022/12/20 22:26:10;;;;;;;9.18;4.18;;;20.60;32.70;;;;;;5042651;28;20093;-67
2022/12/20 22:28:37;;;;;;;11.38;4.30;;;20.60;32.90;;;;;;5039651;28;20104;-65
2022/12/20 22:31:08;;;;;;;7.13;4.18;;;20.50;33.80;;;;;;5044530;28;20555;-64
2022/12/20 22:33:35;;;;;;;11.82;4.78;;;20.60;33.70;;;;;;5044648;28;20085;-66
2022/12/20 22:36:02;;;;;;;8.32;4.65;;;20.60;33.20;;;;;;5043462;28;20101;-66
2022/12/20 22:38:29;;;;;;;8.45;4.05;;;20.60;33.40;;;;;;5041689;28;20080;-64
2022/12/20 22:41:05;;;;;;;9.80;4.40;;;20.60;33.50;;;;;;5041689;28;20069;-66
2022/12/20 22:43:31;;;;;;;11.55;4.15;;;20.40;33.00;;;;;;5040513;28;20069;-66
2022/12/20 22:45:58;;;;;;;7.13;4.30;;;20.40;33.30;;;;;;5041567;28;20425;-64
2022/12/20 22:48:26;;;;;;;11.68;4.38;;;20.50;33.40;;;;;;5039300;28;20081;-62
2022/12/20 22:51:23;;;;;;;7.72;3.75;;;20.40;32.50;;;;;;5037419;28;20119;-64
2022/12/20 22:53:49;;;;;;;13.38;3.83;;;20.30;32.60;;;;;;5007097;28;20205;-65
2022/12/20 22:56:18;;;;;;;11.82;4.20;;;20.30;32.80;;;;;;5008678;28;20074;-64
2022/12/20 22:58:45;;;;;;;14.18;4.32;;;20.20;32.70;;;;;;5008371;28;20121;-64
2022/12/20 23:01:14;;;;;;;13.38;5.05;;;20.20;33.00;;;;;;5008151;28;20082;-64
2022/12/20 23:03:41;;;;;;;12.02;5.88;;;20.10;33.20;;;;;;5007045;28;20155;-65
2022/12/20 23:06:10;;;;;;;10.18;4.50;;;20.00;33.40;;;;;;5007364;28;20113;-64
2022/12/20 23:08:37;;;;;;;7.65;3.72;;;20.00;33.40;;;;;;5007848;28;20553;-64
2022/12/20 23:16:41;;;;;;;9.40;4.07;;;19.60;33.60;;;;;;5007608;28;20192;-65
2022/12/20 23:19:07;;;;;;;13.77;4.32;;;19.40;33.80;;;;;;5005837;28;20181;-65
2022/12/20 23:24:18;;;;;;;14.25;4.65;;;19.20;34.30;;;;;;5004134;28;20629;-63
2022/12/20 23:26:45;;;;;;;10.70;4.63;;;19.10;34.30;;;;;;5006740;28;21350;-62
2022/12/20 23:29:12;;;;;;;8.90;4.13;;;18.90;34.50;;;;;;4993066;28;20078;-67
2022/12/20 23:31:38;;;;;;;16.20;4.32;;;18.90;34.40;;;;;;5040568;28;20069;-65
2022/12/20 23:34:06;;;;;;;22.92;12.98;;;18.80;34.00;;;;;;5040493;28;20171;-66
2022/12/20 23:36:32;;;;;;;7.60;4.03;;;18.70;34.10;;;;;;5043684;28;20064;-63
2022/12/20 23:38:59;;;;;;;38.15;4.55;;;18.60;34.50;;;;;;5040536;28;20434;-66
2022/12/20 23:41:25;;;;;;;13.10;3.40;;;18.40;34.60;;;;;;5043474;28;20153;-65
2022/12/20 23:43:52;;;;;;;9.88;3.67;;;18.40;34.50;;;;;;5040352;28;20077;-65
2022/12/20 23:46:20;;;;;;;10.98;3.03;;;18.30;34.40;;;;;;5042765;28;20070;-65
2022/12/20 23:48:46;;;;;;;14.57;3.65;;;18.20;34.50;;;;;;5034641;28;20073;-66
2022/12/20 23:51:13;;;;;;;18.85;4.60;;;18.10;34.90;;;;;;5039772;28;20073;-65
2022/12/20 23:53:39;;;;;;;19.48;5.68;;;18.10;36.00;;;;;;5037297;28;20101;-63
2022/12/20 23:56:13;;;;;;;13.50;3.92;;;17.90;35.70;;;;;;5033672;28;20157;-64
2022/12/20 23:58:41;;;;;;;11.70;3.85;;;17.80;35.40;;;;;;5032766;28;20226;-65
